Time;durP1;ratioP1;P1;durP2;ratioP2;P2;SDS_P1;SDS_P2;PMS_P1;PMS_P2;Temp;Humidity;BMP_temperature;BMP_pressure;BME280_temperature;BME280_humidity;BME280_pressure;Samples;Min_cycle;Max_cycle;Signal;HPM_P1;HPM_P2
2024/01/01 00:01:22;;;;;;;;;;;7.80;99.90;;;;;;5049881;28;19925;-34
2024/01/01 00:03:48;;;;;;;;;;;7.70;99.90;;;;;;5050206;28;19924;-34
2024/01/01 00:06:15;;;;;;;;;;;7.70;99.90;;;;;;5050506;28;19974;-33
2024/01/01 00:08:41;;;;;;;;;;;7.70;99.90;;;;;;5052645;28;19921;-34
2024/01/01 00:11:08;;;;;;;;;;;7.80;99.90;;;;;;5052413;28;19921;-34
2024/01/01 00:13:36;;;;;;;;;;;7.80;99.90;;;;;;5051863;28;20372;-34
2024/01/01 00:16:03;;;;;;;;;;;7.80;99.90;;;;;;5049276;28;20353;-34
2024/01/01 00:18:29;;;;;;;;;;;7.80;99.90;;;;;;5054186;28;19920;-33
2024/01/01 00:20:56;;;;;;;;;;;7.80;99.90;;;;;;5053328;28;19920;-34
2024/01/01 00:23:23;;;;;;;;;;;7.80;99.90;;;;;;5052011;28;19990;-34
2024/01/01 00:25:49;;;;;;;;;;;7.80;99.90;;;;;;5051580;28;20318;-32
2024/01/01 00:28:16;;;;;;;;;;;7.90;99.90;;;;;;5045106;28;20446;-36
2024/01/01 00:30:44;;;;;;;;;;;7.90;99.90;;;;;;5052693;28;20323;-33
2024/01/01 00:33:11;;;;;;;;;;;7.90;99.90;;;;;;5051705;28;19925;-34
2024/01/01 00:35:37;;;;;;;;;;;8.00;99.90;;;;;;5045474;28;20392;-35
2024/01/01 00:38:04;;;;;;;;;;;8.00;99.90;;;;;;5052950;28;19967;-34
2024/01/01 00:40:31;;;;;;;;;;;8.10;99.90;;;;;;5048625;28;19971;-33
2024/01/01 00:42:58;;;;;;;;;;;8.00;99.90;;;;;;5053301;28;19920;-34
2024/01/01 00:45:24;;;;;;;;;;;8.00;99.90;;;;;;5049321;28;19971;-33
2024/01/01 00:47:52;;;;;;;;;;;8.10;99.90;;;;;;5052378;28;19920;-33
2024/01/01 00:50:19;;;;;;;;;;;8.10;99.90;;;;;;5053224;28;19939;-33
2024/01/01 00:52:45;;;;;;;;;;;8.10;99.90;;;;;;5053290;28;20288;-34
2024/01/01 00:55:12;;;;;;;;;;;8.10;99.90;;;;;;5052989;28;19925;-36
2024/01/01 00:57:39;;;;;;;;;;;8.10;99.90;;;;;;5054585;28;19921;-34
2024/01/01 01:00:06;;;;;;;;;;;8.10;99.90;;;;;;5053849;28;19925;-34
2024/01/01 01:02:33;;;;;;;;;;;8.10;99.90;;;;;;5052348;28;20399;-33
2024/01/01 01:05:01;;;;;;;;;;;8.20;99.90;;;;;;5052250;28;19925;-34
2024/01/01 01:07:28;;;;;;;;;;;8.10;99.90;;;;;;5053299;28;19966;-35
2024/01/01 01:09:54;;;;;;;;;;;8.10;99.90;;;;;;5052256;28;19974;-35
2024/01/01 01:12:22;;;;;;;;;;;8.10;99.90;;;;;;5053576;28;19921;-34
2024/01/01 01:14:49;;;;;;;;;;;8.10;99.90;;;;;;5050580;28;19921;-34
2024/01/01 01:17:15;;;;;;;;;;;8.10;99.90;;;;;;5052848;28;19920;-37
2024/01/01 01:19:42;;;;;;;;;;;8.10;99.90;;;;;;5051924;28;19924;-33
2024/01/01 01:22:10;;;;;;;;;;;8.20;99.90;;;;;;5050759;28;19921;-34
2024/01/01 01:24:37;;;;;;;;;;;8.10;99.90;;;;;;5053161;28;19925;-35
2024/01/01 01:27:04;;;;;;;;;;;8.10;99.90;;;;;;5049822;28;20415;-33
2024/01/01 01:29:30;;;;;;;;;;;8.10;99.90;;;;;;5052012;28;19959;-36
2024/01/01 01:31:57;;;;;;;;;;;8.10;99.90;;;;;;5050588;28;19975;-33
2024/01/01 01:34:23;;;;;;;;;;;8.10;99.90;;;;;;5052436;28;19924;-34
2024/01/01 01:36:50;;;;;;;;;;;8.10;99.90;;;;;;5052602;28;19997;-34
2024/01/01 01:39:18;;;;;;;;;;;8.10;99.90;;;;;;5052012;28;20423;-34
2024/01/01 01:41:44;;;;;;;;;;;8.10;99.90;;;;;;5051248;28;19943;-33
2024/01/01 01:44:11;;;;;;;;;;;8.10;99.90;;;;;;5050401;28;20300;-34
2024/01/01 01:46:37;;;;;;;;;;;8.10;99.90;;;;;;5052452;28;19968;-34
2024/01/01 01:49:04;;;;;;;;;;;8.10;99.90;;;;;;5052189;28;19991;-33
2024/01/01 01:51:31;;;;;;;;;;;8.10;99.90;;;;;;5053318;28;20009;-33
2024/01/01 01:53:57;;;;;;;;;;;8.00;99.90;;;;;;5040453;28;19921;-35
2024/01/01 01:56:25;;;;;;;;;;;8.00;99.90;;;;;;5061778;28;19948;-34
2024/01/01 01:58:52;;;;;;;;;;;8.10;99.90;;;;;;5051166;28;19924;-35
2024/01/01 02:01:18;;;;;;;;;;;8.10;99.90;;;;;;5051715;28;19974;-33
2024/01/01 02:03:45;;;;;;;;;;;8.10;99.90;;;;;;5052078;28;19920;-33
2024/01/01 02:06:12;;;;;;;;;;;8.00;99.90;;;;;;5051773;28;19920;-34
2024/01/01 02:08:38;;;;;;;;;;;8.00;99.90;;;;;;5052643;28;19964;-33
2024/01/01 02:11:05;;;;;;;;;;;8.00;99.90;;;;;;5051516;28;19921;-35
2024/01/01 02:13:33;;;;;;;;;;;8.00;99.90;;;;;;5049845;28;19968;-33
2024/01/01 02:16:00;;;;;;;;;;;8.00;99.90;;;;;;5060701;28;19928;-33
2024/01/01 02:18:27;;;;;;;;;;;8.00;99.90;;;;;;5055075;28;19921;-34
2024/01/01 02:20:55;;;;;;;;;;;8.00;99.90;;;;;;5052516;28;19920;-35
2024/01/01 02:23:24;;;;;;;;;;;8.00;99.90;;;;;;5051870;28;19925;-34
2024/01/01 02:25:51;;;;;;;;;;;8.00;99.90;;;;;;5051478;28;19925;-35
2024/01/01 02:28:19;;;;;;;;;;;8.00;99.90;;;;;;5051320;28;20450;-34
2024/01/01 02:30:45;;;;;;;;;;;8.00;99.90;;;;;;5051237;28;19974;-35
2024/01/01 02:33:14;;;;;;;;;;;7.90;99.90;;;;;;5051181;28;19925;-34
2024/01/01 02:35:40;;;;;;;;;;;7.90;99.90;;;;;;5051682;28;19931;-35
2024/01/01 02:38:07;;;;;;;;;;;7.90;99.90;;;;;;5051542;28;19921;-34
2024/01/01 02:40:35;;;;;;;;;;;7.90;99.90;;;;;;5051393;28;19920;-33
2024/01/01 02:43:02;;;;;;;;;;;7.80;99.90;;;;;;5052047;28;20329;-34
2024/01/01 02:45:29;;;;;;;;;;;7.80;99.90;;;;;;5051706;28;19960;-35
2024/01/01 02:47:55;;;;;;;;;;;7.70;99.90;;;;;;5051462;28;20418;-33
2024/01/01 02:50:22;;;;;;;;;;;7.60;99.90;;;;;;5051230;28;19920;-34
2024/01/01 02:52:49;;;;;;;;;;;7.50;99.90;;;;;;5050377;28;19921;-35
2024/01/01 02:55:16;;;;;;;;;;;7.60;99.90;;;;;;5052154;28;19921;-32
2024/01/01 02:57:44;;;;;;;;;;;7.50;99.90;;;;;;5051195;28;19920;-33
2024/01/01 03:00:14;;;;;;;;;;;7.50;99.90;;;;;;5050907;28;19921;-33
2024/01/01 03:02:41;;;;;;;;;;;7.40;99.90;;;;;;5050938;28;19948;-35
2024/01/01 03:05:08;;;;;;;;;;;7.40;99.90;;;;;;5051154;28;19925;-33
2024/01/01 03:07:34;;;;;;;;;;;7.40;99.90;;;;;;5050284;28;19967;-34
2024/01/01 03:10:01;;;;;;;;;;;7.40;99.90;;;;;;5050963;28;19925;-34
2024/01/01 03:12:27;;;;;;;;;;;7.40;99.90;;;;;;5055465;28;19966;-35
2024/01/01 03:14:55;;;;;;;;;;;7.30;99.90;;;;;;5054581;28;20013;-32
2024/01/01 03:17:22;;;;;;;;;;;7.40;99.90;;;;;;5055127;28;19921;-34
2024/01/01 03:19:50;;;;;;;;;;;7.40;99.90;;;;;;5055189;28;20380;-33
2024/01/01 03:22:17;;;;;;;;;;;7.30;99.90;;;;;;5054168;28;19925;-34
2024/01/01 03:24:43;;;;;;;;;;;7.30;99.90;;;;;;5055031;28;19920;-33
2024/01/01 03:27:10;;;;;;;;;;;7.30;99.90;;;;;;5054736;28;20361;-35
2024/01/01 03:29:36;;;;;;;;;;;7.20;99.90;;;;;;5054780;28;19921;-34
2024/01/01 03:32:05;;;;;;;;;;;7.30;99.90;;;;;;5054611;28;19920;-34
2024/01/01 03:34:33;;;;;;;;;;;7.20;99.90;;;;;;5054918;28;19921;-34
2024/01/01 03:36:59;;;;;;;;;;;7.20;99.90;;;;;;5054600;28;19921;-32
2024/01/01 03:39:26;;;;;;;;;;;7.20;99.90;;;;;;5054605;28;19920;-34
2024/01/01 03:41:52;;;;;;;;;;;7.20;99.90;;;;;;5053815;28;19947;-34
2024/01/01 03:44:19;;;;;;;;;;;7.20;99.90;;;;;;5055214;28;19975;-34
2024/01/01 03:46:46;;;;;;;;;;;7.10;99.90;;;;;;5054648;28;19925;-32
2024/01/01 03:49:14;;;;;;;;;;;7.10;99.90;;;;;;5054554;28;19920;-33
2024/01/01 03:51:40;;;;;;;;;;;7.10;99.90;;;;;;5055666;28;19921;-33
2024/01/01 03:54:07;;;;;;;;;;;7.10;99.90;;;;;;5054071;28;19976;-34
2024/01/01 03:56:33;;;;;;;;;;;7.00;99.90;;;;;;5054218;28;20068;-36
2024/01/01 03:59:00;;;;;;;;;;;7.00;99.90;;;;;;5053463;28;19921;-34
2024/01/01 04:01:27;;;;;;;;;;;7.00;99.90;;;;;;5054190;28;19921;-34
2024/01/01 04:03:59;;;;;;;;;;;7.00;99.90;;;;;;5054012;28;20283;-33
2024/01/01 04:06:27;;;;;;;;;;;7.00;99.90;;;;;;5054245;28;19920;-35
2024/01/01 04:08:53;;;;;;;;;;;7.00;99.90;;;;;;5054351;28;19921;-37
2024/01/01 04:11:20;;;;;;;;;;;7.00;99.90;;;;;;5052015;28;19979;-32
2024/01/01 04:13:47;;;;;;;;;;;7.00;99.90;;;;;;5052649;28;19971;-35
2024/01/01 04:16:13;;;;;;;;;;;7.00;99.90;;;;;;5053959;28;19921;-33
2024/01/01 04:18:40;;;;;;;;;;;7.00;99.90;;;;;;5054157;28;19920;-33
2024/01/01 04:21:07;;;;;;;;;;;7.00;99.90;;;;;;5053911;28;20366;-34
2024/01/01 04:23:35;;;;;;;;;;;6.90;99.90;;;;;;5053097;28;19978;-34
2024/01/01 04:26:01;;;;;;;;;;;6.90;99.90;;;;;;5053709;28;19967;-35
2024/01/01 04:28:28;;;;;;;;;;;6.90;99.90;;;;;;5054488;28;19990;-33
2024/01/01 04:30:55;;;;;;;;;;;6.90;99.90;;;;;;5053025;28;19920;-34
2024/01/01 04:33:21;;;;;;;;;;;6.90;99.90;;;;;;5054689;28;20417;-34
2024/01/01 04:35:48;;;;;;;;;;;6.90;99.90;;;;;;5053426;28;19920;-34
2024/01/01 04:38:15;;;;;;;;;;;6.90;99.90;;;;;;5053919;28;19920;-34
2024/01/01 04:40:43;;;;;;;;;;;6.90;99.90;;;;;;5052087;28;19925;-33
2024/01/01 04:43:09;;;;;;;;;;;6.90;99.90;;;;;;5054567;28;19925;-33
2024/01/01 04:45:37;;;;;;;;;;;6.90;99.90;;;;;;5051833;28;19972;-35
2024/01/01 04:48:04;;;;;;;;;;;6.90;99.90;;;;;;5053547;28;20375;-35
2024/01/01 04:50:31;;;;;;;;;;;6.80;99.90;;;;;;5054502;28;19921;-34
2024/01/01 04:52:57;;;;;;;;;;;6.80;99.90;;;;;;5053157;28;20300;-34
2024/01/01 04:55:24;;;;;;;;;;;6.80;99.90;;;;;;5053129;28;19927;-32
2024/01/01 04:57:52;;;;;;;;;;;6.80;99.90;;;;;;5054612;28;19925;-33
2024/01/01 05:00:19;;;;;;;;;;;6.80;99.90;;;;;;5054030;28;19920;-33
2024/01/01 05:02:45;;;;;;;;;;;6.80;99.90;;;;;;5051578;28;19921;-32
2024/01/01 05:05:12;;;;;;;;;;;6.80;99.90;;;;;;5052290;28;19920;-34
2024/01/01 05:07:39;;;;;;;;;;;6.80;99.90;;;;;;5053224;28;19925;-34
2024/01/01 05:10:06;;;;;;;;;;;6.90;99.90;;;;;;5052471;28;19924;-34
2024/01/01 05:12:32;;;;;;;;;;;6.90;99.90;;;;;;5053250;28;19925;-34
2024/01/01 05:15:00;;;;;;;;;;;6.90;99.90;;;;;;5050837;28;19974;-32
2024/01/01 05:17:27;;;;;;;;;;;6.90;99.90;;;;;;5033168;28;19928;-33
2024/01/01 05:19:54;;;;;;;;;;;6.90;99.90;;;;;;5048736;28;20352;-33
2024/01/01 05:22:20;;;;;;;;;;;6.90;99.90;;;;;;5053097;28;20373;-34
2024/01/01 05:24:47;;;;;;;;;;;6.90;99.90;;;;;;5051609;28;19921;-34
2024/01/01 05:27:13;;;;;;;;;;;6.90;99.90;;;;;;5051132;28;19921;-34
2024/01/01 05:29:41;;;;;;;;;;;7.00;99.90;;;;;;5052690;28;20323;-34
2024/01/01 05:32:09;;;;;;;;;;;7.00;99.90;;;;;;5050797;28;20399;-33
2024/01/01 05:34:35;;;;;;;;;;;6.90;99.90;;;;;;5050740;28;20372;-33
2024/01/01 05:37:02;;;;;;;;;;;7.00;99.90;;;;;;5051122;28;19971;-36
2024/01/01 05:39:29;;;;;;;;;;;7.00;99.90;;;;;;5050013;28;19928;-34
2024/01/01 05:41:55;;;;;;;;;;;6.90;99.90;;;;;;5033767;28;19925;-32
2024/01/01 05:44:22;;;;;;;;;;;7.00;99.90;;;;;;5049949;28;19925;-33
2024/01/01 05:46:49;;;;;;;;;;;7.00;99.90;;;;;;5050625;28;20410;-33
2024/01/01 05:49:18;;;;;;;;;;;7.00;99.90;;;;;;5050497;28;19927;-34
2024/01/01 05:51:44;;;;;;;;;;;7.00;99.90;;;;;;5052480;28;20303;-33
2024/01/01 05:54:11;;;;;;;;;;;7.00;99.90;;;;;;5051933;28;20384;-34
2024/01/01 05:56:37;;;;;;;;;;;7.10;99.90;;;;;;5050256;28;19921;-35
2024/01/01 05:59:04;;;;;;;;;;;7.00;99.90;;;;;;5051143;28;20369;-33
2024/01/01 06:01:31;;;;;;;;;;;7.00;99.90;;;;;;5051047;28;19978;-34
2024/01/01 06:03:57;;;;;;;;;;;7.00;99.90;;;;;;5050304;28;19963;-32
2024/01/01 06:06:25;;;;;;;;;;;7.10;99.90;;;;;;5051680;28;19971;-33
2024/01/01 06:08:52;;;;;;;;;;;7.10;99.90;;;;;;5049811;28;19963;-33
2024/01/01 06:11:19;;;;;;;;;;;7.10;99.90;;;;;;5051110;28;20471;-33
2024/01/01 06:13:45;;;;;;;;;;;7.00;99.90;;;;;;5051709;28;19920;-35
2024/01/01 06:16:13;;;;;;;;;;;7.00;99.90;;;;;;5052286;28;20342;-34
2024/01/01 06:18:40;;;;;;;;;;;7.10;99.90;;;;;;5049889;28;19927;-34
2024/01/01 06:21:06;;;;;;;;;;;7.10;99.90;;;;;;5051637;28;20342;-34
2024/01/01 06:23:35;;;;;;;;;;;7.00;99.90;;;;;;5044964;28;19975;-34
2024/01/01 06:26:02;;;;;;;;;;;7.10;99.90;;;;;;5042785;28;19935;-33
2024/01/01 06:28:29;;;;;;;;;;;7.10;99.90;;;;;;5051135;28;19920;-35
2024/01/01 06:30:56;;;;;;;;;;;7.10;99.90;;;;;;5049653;28;19965;-34
2024/01/01 06:33:22;;;;;;;;;;;7.10;99.90;;;;;;5051365;28;19921;-35
2024/01/01 06:35:49;;;;;;;;;;;7.10;99.90;;;;;;5050646;28;19921;-32
2024/01/01 06:38:15;;;;;;;;;;;7.10;99.90;;;;;;5050680;28;20308;-36
2024/01/01 06:40:44;;;;;;;;;;;7.10;99.90;;;;;;5052033;28;19921;-34
2024/01/01 06:43:11;;;;;;;;;;;7.10;99.90;;;;;;5050485;28;19921;-33
2024/01/01 06:45:37;;;;;;;;;;;7.10;99.90;;;;;;5052021;28;20446;-35
2024/01/01 06:48:04;;;;;;;;;;;7.10;99.90;;;;;;5049247;28;19980;-34
2024/01/01 06:50:31;;;;;;;;;;;7.10;99.90;;;;;;5052164;28;19921;-34
2024/01/01 06:52:57;;;;;;;;;;;7.10;99.90;;;;;;5052148;28;19971;-33
2024/01/01 06:55:24;;;;;;;;;;;7.10;99.90;;;;;;5051462;28;19974;-33
2024/01/01 06:57:52;;;;;;;;;;;7.10;99.90;;;;;;5050528;28;20341;-33
2024/01/01 07:00:20;;;;;;;;;;;7.10;99.90;;;;;;5051189;28;20378;-33
2024/01/01 07:02:49;;;;;;;;;;;7.10;99.90;;;;;;5032267;28;19921;-34
2024/01/01 07:05:19;;;;;;;;;;;7.10;99.90;;;;;;5049265;28;19921;-34
2024/01/01 07:07:46;;;;;;;;;;;7.10;99.90;;;;;;5050913;28;20517;-33
2024/01/01 07:10:12;;;;;;;;;;;7.10;99.90;;;;;;5050660;28;19921;-35
2024/01/01 07:12:39;;;;;;;;;;;7.10;99.90;;;;;;5052115;28;20426;-34
2024/01/01 07:15:07;;;;;;;;;;;7.10;99.90;;;;;;5050187;28;19921;-34
2024/01/01 07:17:34;;;;;;;;;;;7.00;99.90;;;;;;5049477;28;19925;-34
2024/01/01 07:20:04;;;;;;;;;;;7.00;99.90;;;;;;5051103;28;19964;-34
2024/01/01 07:22:32;;;;;;;;;;;7.00;99.90;;;;;;5050489;28;19924;-35
2024/01/01 07:24:58;;;;;;;;;;;7.00;99.90;;;;;;5048294;28;19999;-32
2024/01/01 07:27:25;;;;;;;;;;;7.00;99.90;;;;;;5050538;28;19929;-34
2024/01/01 07:29:51;;;;;;;;;;;7.00;99.90;;;;;;5049052;28;20438;-35
2024/01/01 07:32:19;;;;;;;;;;;7.10;99.90;;;;;;5050286;28;19929;-36
2024/01/01 07:34:46;;;;;;;;;;;7.00;99.90;;;;;;5049214;28;19921;-34
2024/01/01 07:37:13;;;;;;;;;;;7.00;99.90;;;;;;5049206;28;19924;-33
2024/01/01 07:39:39;;;;;;;;;;;7.10;99.90;;;;;;5049381;28;19920;-33
2024/01/01 07:42:09;;;;;;;;;;;7.00;99.90;;;;;;5050109;28;20313;-33
2024/01/01 07:44:36;;;;;;;;;;;7.00;99.90;;;;;;5046010;28;19975;-35
2024/01/01 07:47:02;;;;;;;;;;;7.00;99.90;;;;;;5038804;28;20427;-33
2024/01/01 07:49:30;;;;;;;;;;;7.00;99.90;;;;;;5043227;28;19925;-33
2024/01/01 07:51:57;;;;;;;;;;;7.00;99.90;;;;;;5049797;28;19944;-33
2024/01/01 07:54:24;;;;;;;;;;;7.10;99.90;;;;;;5048957;28;19947;-33
2024/01/01 07:56:50;;;;;;;;;;;7.10;99.90;;;;;;5051660;28;19925;-33
2024/01/01 07:59:17;;;;;;;;;;;7.10;99.90;;;;;;5054097;28;19971;-36
2024/01/01 08:01:44;;;;;;;;;;;7.10;99.90;;;;;;5052043;28;19921;-34
2024/01/01 08:04:10;;;;;;;;;;;7.10;99.90;;;;;;5053449;28;20211;-34
2024/01/01 08:06:38;;;;;;;;;;;7.20;99.90;;;;;;5067952;28;19977;-33
2024/01/01 08:09:05;;;;;;;;;;;7.20;99.90;;;;;;5054129;28;19982;-33
2024/01/01 08:11:32;;;;;;;;;;;7.20;99.90;;;;;;5050588;28;19924;-33
2024/01/01 08:13:58;;;;;;;;;;;7.20;99.90;;;;;;5053633;28;19929;-35
2024/01/01 08:16:25;;;;;;;;;;;7.20;99.90;;;;;;5049921;28;20314;-33
2024/01/01 08:18:52;;;;;;;;;;;7.20;99.90;;;;;;5051258;28;20015;-34
2024/01/01 08:21:19;;;;;;;;;;;7.20;99.90;;;;;;5052990;28;19967;-33
2024/01/01 08:23:48;;;;;;;;;;;7.20;99.90;;;;;;5053079;28;20368;-33
2024/01/01 08:26:14;;;;;;;;;;;7.20;99.90;;;;;;5051477;28;19921;-34
2024/01/01 08:28:41;;;;;;;;;;;7.20;99.90;;;;;;5051593;28;19932;-34
2024/01/01 08:31:08;;;;;;;;;;;7.30;99.90;;;;;;5053050;28;19928;-33
2024/01/01 08:33:34;;;;;;;;;;;7.30;99.90;;;;;;5051752;28;19921;-33
2024/01/01 08:36:01;;;;;;;;;;;7.30;99.90;;;;;;5054422;28;20338;-34
2024/01/01 08:38:28;;;;;;;;;;;7.30;99.90;;;;;;5053501;28;20438;-32
2024/01/01 08:40:56;;;;;;;;;;;7.20;99.90;;;;;;5053429;28;20288;-33
2024/01/01 08:43:22;;;;;;;;;;;7.30;99.90;;;;;;5052931;28;20364;-34
2024/01/01 08:45:49;;;;;;;;;;;7.30;99.90;;;;;;5053480;28;19975;-35
2024/01/01 08:48:15;;;;;;;;;;;7.20;99.90;;;;;;5051516;28;19921;-32
2024/01/01 08:50:42;;;;;;;;;;;7.20;99.90;;;;;;5053913;28;19924;-34
2024/01/01 08:53:09;;;;;;;;;;;7.30;99.90;;;;;;5053274;28;19990;-34
2024/01/01 08:55:36;;;;;;;;;;;7.20;99.90;;;;;;5053217;28;19959;-34
2024/01/01 08:58:05;;;;;;;;;;;7.20;99.90;;;;;;5053232;28;20376;-33
2024/01/01 09:00:31;;;;;;;;;;;7.30;99.90;;;;;;5053414;28;20351;-35
2024/01/01 09:02:58;;;;;;;;;;;7.30;99.90;;;;;;5053969;28;20327;-35
2024/01/01 09:05:25;;;;;;;;;;;7.30;99.90;;;;;;5051798;28;19921;-34
2024/01/01 09:07:51;;;;;;;;;;;7.30;99.90;;;;;;5051268;28;19974;-34
2024/01/01 09:10:18;;;;;;;;;;;7.30;99.90;;;;;;5047248;28;20430;-33
2024/01/01 09:12:45;;;;;;;;;;;7.30;99.90;;;;;;5052455;28;19921;-35
2024/01/01 09:15:15;;;;;;;;;;;7.30;99.90;;;;;;5052909;28;19974;-34
2024/01/01 09:17:42;;;;;;;;;;;7.20;99.90;;;;;;5052130;28;20015;-34
2024/01/01 09:20:09;;;;;;;;;;;7.30;99.90;;;;;;5044663;28;19974;-34
2024/01/01 09:22:35;;;;;;;;;;;7.20;99.90;;;;;;5036691;28;19925;-34
2024/01/01 09:25:02;;;;;;;;;;;7.30;99.90;;;;;;5043791;28;20431;-33
2024/01/01 09:27:29;;;;;;;;;;;7.30;99.90;;;;;;5052071;28;19987;-34
2024/01/01 09:29:55;;;;;;;;;;;7.30;99.90;;;;;;5051681;28;19921;-33
2024/01/01 09:32:23;;;;;;;;;;;7.30;99.90;;;;;;5052361;28;19927;-35
2024/01/01 09:34:50;;;;;;;;;;;7.30;99.90;;;;;;5050546;28;19960;-34
2024/01/01 09:37:16;;;;;;;;;;;7.40;99.90;;;;;;5051707;28;19924;-33
2024/01/01 09:39:43;;;;;;;;;;;7.30;99.90;;;;;;5052280;28;20002;-32
2024/01/01 09:42:10;;;;;;;;;;;7.30;99.90;;;;;;5047798;28;20026;-33
2024/01/01 09:44:37;;;;;;;;;;;7.30;99.90;;;;;;5052441;28;19921;-37
2024/01/01 09:47:05;;;;;;;;;;;7.30;99.90;;;;;;5052141;28;19924;-33
2024/01/01 09:49:33;;;;;;;;;;;7.40;99.90;;;;;;5053500;28;19921;-32
2024/01/01 09:52:00;;;;;;;;;;;7.40;99.90;;;;;;5052380;28;19927;-33
2024/01/01 09:54:27;;;;;;;;;;;7.40;99.90;;;;;;5053270;28;19920;-34
2024/01/01 09:56:53;;;;;;;;;;;7.40;99.90;;;;;;5049985;28;19921;-34
2024/01/01 09:59:32;;;;;;;;;;;7.50;99.90;;;;;;5051739;28;20288;-34
2024/01/01 10:02:02;;;;;;;;;;;7.40;99.90;;;;;;5052871;28;20331;-34
2024/01/01 10:04:28;;;;;;;;;;;7.50;99.90;;;;;;5053016;28;19925;-33
2024/01/01 10:06:58;;;;;;;;;;;7.50;99.90;;;;;;5051959;28;19921;-33
2024/01/01 10:09:25;;;;;;;;;;;7.50;99.90;;;;;;5051600;28;19921;-35
2024/01/01 10:11:51;;;;;;;;;;;7.50;99.90;;;;;;5051211;28;19951;-34
2024/01/01 10:14:18;;;;;;;;;;;7.50;99.90;;;;;;5050570;28;19971;-34
2024/01/01 10:16:45;;;;;;;;;;;7.50;99.90;;;;;;5050102;28;19932;-33
2024/01/01 10:19:13;;;;;;;;;;;7.50;99.90;;;;;;5053077;28;19982;-35
2024/01/01 10:21:41;;;;;;;;;;;7.50;99.90;;;;;;5052070;28;19921;-34
2024/01/01 10:24:15;;;;;;;;;;;7.50;99.90;;;;;;5051143;28;20336;-33
2024/01/01 10:26:42;;;;;;;;;;;7.60;99.90;;;;;;5051548;28;19924;-36
2024/01/01 10:29:09;;;;;;;;;;;7.60;99.90;;;;;;5051332;28;19956;-32
2024/01/01 10:31:35;;;;;;;;;;;7.60;99.90;;;;;;5051692;28;19975;-34
2024/01/01 10:34:03;;;;;;;;;;;7.60;99.90;;;;;;5050467;28;19921;-34
2024/01/01 10:36:30;;;;;;;;;;;7.60;99.90;;;;;;5050535;28;20308;-34
2024/01/01 10:38:56;;;;;;;;;;;7.70;99.90;;;;;;5051572;28;19920;-34
2024/01/01 10:41:26;;;;;;;;;;;7.80;99.90;;;;;;5050604;28;21430;-33
2024/01/01 10:43:53;;;;;;;;;;;7.90;99.90;;;;;;5052515;28;20272;-34
2024/01/01 10:46:19;;;;;;;;;;;7.90;99.90;;;;;;5051733;28;19968;-33
2024/01/01 10:48:46;;;;;;;;;;;7.90;99.90;;;;;;5049381;28;19971;-35
2024/01/01 10:51:28;;;;;;;;;;;8.00;99.90;;;;;;5047467;28;19971;-34
2024/01/01 10:53:59;;;;;;;;;;;8.00;99.90;;;;;;5050057;28;19928;-32
2024/01/01 10:56:28;;;;;;;;;;;8.00;99.90;;;;;;5047085;28;19948;-33
2024/01/01 10:59:00;;;;;;;;;;;7.90;99.90;;;;;;5051919;28;19925;-34
2024/01/01 11:01:27;;;;;;;;;;;7.90;99.90;;;;;;5050749;28;19925;-34
2024/01/01 11:03:53;;;;;;;;;;;7.90;99.90;;;;;;5050361;28;19994;-35
2024/01/01 11:06:26;;;;;;;;;;;7.90;99.90;;;;;;5048178;28;20439;-33
2024/01/01 11:08:53;;;;;;;;;;;7.90;99.90;;;;;;5047817;28;20026;-34
2024/01/01 11:11:24;;;;;;;;;;;7.80;99.90;;;;;;5049363;28;20331;-33
2024/01/01 11:13:55;;;;;;;;;;;7.80;99.90;;;;;;5049863;28;19925;-33
2024/01/01 11:16:22;;;;;;;;;;;7.90;99.90;;;;;;5046601;28;19929;-34
2024/01/01 11:18:49;;;;;;;;;;;7.80;99.90;;;;;;5049063;28;19931;-34
2024/01/01 11:21:29;;;;;;;;;;;7.90;99.90;;;;;;5051288;28;20352;-34
2024/01/01 11:23:56;;;;;;;;;;;7.80;99.90;;;;;;5049990;28;19928;-35
2024/01/01 11:26:25;;;;;;;;;;;7.90;99.90;;;;;;5049122;28;19932;-34
2024/01/01 11:28:52;;;;;;;;;;;7.90;99.90;;;;;;5049932;28;20273;-36
2024/01/01 11:31:21;;;;;;;;;;;7.90;99.90;;;;;;5048122;28;19956;-33
2024/01/01 11:33:54;;;;;;;;;;;8.00;99.90;;;;;;5055046;28;19952;-34
2024/01/01 11:36:22;;;;;;;;;;;8.00;99.90;;;;;;5053813;28;20335;-33
2024/01/01 11:38:51;;;;;;;;;;;8.00;99.90;;;;;;5055747;28;19986;-34
2024/01/01 11:41:21;;;;;;;;;;;8.00;99.90;;;;;;5055686;28;19928;-34
2024/01/01 11:43:48;;;;;;;;;;;8.10;99.90;;;;;;5053783;28;19982;-34
2024/01/01 11:46:23;;;;;;;;;;;8.10;99.90;;;;;;5053826;28;19929;-33
2024/01/01 11:48:55;;;;;;;;;;;8.10;99.90;;;;;;5053586;28;19951;-34
2024/01/01 11:51:21;;;;;;;;;;;8.10;99.90;;;;;;5052226;28;19925;-34
2024/01/01 11:53:48;;;;;;;;;;;8.10;99.90;;;;;;5052403;28;19924;-34
2024/01/01 11:56:14;;;;;;;;;;;8.20;99.90;;;;;;5052183;28;19983;-35
2024/01/01 11:58:41;;;;;;;;;;;8.20;99.90;;;;;;5053060;28;19925;-34
2024/01/01 12:01:08;;;;;;;;;;;8.20;99.90;;;;;;5053503;28;19933;-32
2024/01/01 12:03:36;;;;;;;;;;;8.20;99.90;;;;;;5053903;28;19935;-34
2024/01/01 12:06:03;;;;;;;;;;;8.20;99.90;;;;;;5052160;28;20379;-35
2024/01/01 12:08:29;;;;;;;;;;;8.30;99.90;;;;;;5047475;28;19929;-34
2024/01/01 12:10:58;;;;;;;;;;;8.30;99.90;;;;;;5034252;28;19925;-33
2024/01/01 12:13:25;;;;;;;;;;;8.50;99.90;;;;;;5053985;28;19932;-34
2024/01/01 12:15:53;;;;;;;;;;;8.60;99.90;;;;;;5038772;28;19925;-34
2024/01/01 12:18:20;;;;;;;;;;;8.70;99.90;;;;;;5049926;28;19968;-33
2024/01/01 12:20:47;;;;;;;;;;;8.70;99.90;;;;;;5051676;28;20327;-34
2024/01/01 12:23:17;;;;;;;;;;;8.70;99.90;;;;;;5051070;28;20340;-34
2024/01/01 12:25:43;;;;;;;;;;;8.70;99.90;;;;;;5052704;28;19931;-33
2024/01/01 12:28:10;;;;;;;;;;;8.80;99.90;;;;;;5053347;28;19975;-34
2024/01/01 12:30:37;;;;;;;;;;;8.70;99.90;;;;;;5051322;28;19972;-36
2024/01/01 12:33:04;;;;;;;;;;;8.80;99.90;;;;;;5051605;28;20542;-35
2024/01/01 12:35:30;;;;;;;;;;;8.80;99.90;;;;;;5053662;28;19925;-34
2024/01/01 12:37:58;;;;;;;;;;;8.80;99.90;;;;;;5051469;28;19971;-35
2024/01/01 12:40:28;;;;;;;;;;;8.70;99.90;;;;;;5053755;28;19991;-33
2024/01/01 12:42:55;;;;;;;;;;;8.80;99.90;;;;;;5052017;28;19960;-33
2024/01/01 12:45:21;;;;;;;;;;;8.80;99.90;;;;;;5050755;28;20035;-33
2024/01/01 12:47:48;;;;;;;;;;;8.80;99.90;;;;;;5050902;28;19972;-33
2024/01/01 12:50:15;;;;;;;;;;;8.70;99.90;;;;;;5049696;28;20022;-34
2024/01/01 12:52:41;;;;;;;;;;;8.70;99.90;;;;;;5052131;28;19929;-34
2024/01/01 12:55:10;;;;;;;;;;;8.80;99.90;;;;;;5052604;28;19980;-34
2024/01/01 12:57:36;;;;;;;;;;;8.80;99.90;;;;;;5050794;28;20048;-34
2024/01/01 13:00:03;;;;;;;;;;;8.70;99.90;;;;;;5048479;28;19928;-35
2024/01/01 13:02:30;;;;;;;;;;;8.70;99.90;;;;;;5048946;28;20372;-34
2024/01/01 13:04:57;;;;;;;;;;;8.70;99.90;;;;;;5051828;28;19982;-34
2024/01/01 13:07:23;;;;;;;;;;;8.70;99.90;;;;;;5049995;28;19925;-34
2024/01/01 13:09:50;;;;;;;;;;;8.60;99.90;;;;;;5050008;28;19928;-34
2024/01/01 13:12:18;;;;;;;;;;;8.70;99.90;;;;;;5051618;28;20453;-33
2024/01/01 13:14:44;;;;;;;;;;;8.70;99.90;;;;;;5053317;28;19932;-33
2024/01/01 13:17:11;;;;;;;;;;;8.70;99.90;;;;;;5047142;28;19925;-33
2024/01/01 13:19:38;;;;;;;;;;;8.60;99.90;;;;;;5048824;28;19933;-33
2024/01/01 13:22:05;;;;;;;;;;;8.60;99.90;;;;;;5049327;28;19924;-34
2024/01/01 13:24:33;;;;;;;;;;;8.60;99.90;;;;;;5051511;28;20418;-33
2024/01/01 13:27:00;;;;;;;;;;;8.70;99.90;;;;;;5051686;28;20427;-34
2024/01/01 13:29:28;;;;;;;;;;;8.70;99.90;;;;;;5052270;28;19982;-36
2024/01/01 13:31:55;;;;;;;;;;;8.70;99.90;;;;;;5048700;28;19979;-33
2024/01/01 13:34:22;;;;;;;;;;;8.70;99.90;;;;;;5050950;28;19987;-33
2024/01/01 13:36:49;;;;;;;;;;;8.70;99.90;;;;;;5049685;28;19932;-34
2024/01/01 13:39:16;;;;;;;;;;;8.70;99.90;;;;;;5051999;28;19935;-34
2024/01/01 13:41:43;;;;;;;;;;;8.60;99.90;;;;;;5048726;28;19925;-33
2024/01/01 13:44:09;;;;;;;;;;;8.60;99.90;;;;;;5051680;28;19931;-35
2024/01/01 13:46:39;;;;;;;;;;;8.60;99.90;;;;;;5050946;28;19933;-34
2024/01/01 13:49:06;;;;;;;;;;;8.60;99.90;;;;;;5050981;28;19928;-34
2024/01/01 13:51:33;;;;;;;;;;;8.60;99.90;;;;;;5050347;28;19987;-34
2024/01/01 13:54:00;;;;;;;;;;;8.60;99.90;;;;;;5049954;28;19925;-34
2024/01/01 13:56:26;;;;;;;;;;;8.60;99.90;;;;;;5048730;28;19925;-34
2024/01/01 13:58:54;;;;;;;;;;;8.60;99.90;;;;;;5052094;28;19974;-34
2024/01/01 14:01:20;;;;;;;;;;;8.50;99.90;;;;;;5047880;28;20251;-34
2024/01/01 14:03:49;;;;;;;;;;;8.50;99.90;;;;;;5050743;28;19978;-34
2024/01/01 14:06:16;;;;;;;;;;;8.50;99.90;;;;;;5050940;28;19924;-34
2024/01/01 14:08:43;;;;;;;;;;;8.40;99.90;;;;;;5049994;28;19986;-35
2024/01/01 14:11:09;;;;;;;;;;;8.50;99.90;;;;;;5048498;28;19961;-34
2024/01/01 14:13:36;;;;;;;;;;;8.40;99.90;;;;;;5050741;28;19979;-33
2024/01/01 14:16:03;;;;;;;;;;;8.40;99.90;;;;;;5050347;28;19924;-34
2024/01/01 14:18:29;;;;;;;;;;;8.40;99.90;;;;;;5051393;28;19959;-33
2024/01/01 14:20:57;;;;;;;;;;;8.40;99.90;;;;;;5049113;28;19924;-35
2024/01/01 14:23:24;;;;;;;;;;;8.50;99.90;;;;;;5046377;28;19924;-35
2024/01/01 14:25:50;;;;;;;;;;;8.50;99.90;;;;;;5049506;28;19925;-34
2024/01/01 14:28:17;;;;;;;;;;;8.50;99.90;;;;;;5052513;28;20339;-34
2024/01/01 14:30:48;;;;;;;;;;;8.40;99.90;;;;;;5049805;28;19957;-34